sensor_id;sensor_type;location;lat;lon;timestamp;P1;durP1;ratioP1;P2;durP2;ratioP2
80799;SDS011;70202;52.238;10.680;2023-12-20T00:00:43;0.65;;;0.50;;
80799;SDS011;70202;52.238;10.680;2023-12-20T00:01:43;0.90;;;0.47;;
80799;SDS011;70202;52.238;10.680;2023-12-20T00:02:44;0.43;;;0.43;;
80799;SDS011;70202;52.238;10.680;2023-12-20T00:03:46;0.60;;;0.57;;
80799;SDS011;70202;52.238;10.680;2023-12-20T00:04:47;0.30;;;0.30;;
80799;SDS011;70202;52.238;10.680;2023-12-20T00:05:47;1.25;;;0.60;;
80799;SDS011;70202;52.238;10.680;2023-12-20T00:06:48;1.02;;;0.60;;
80799;SDS011;70202;52.238;10.680;2023-12-20T00:07:48;0.55;;;0.40;;
80799;SDS011;70202;52.238;10.680;2023-12-20T00:08:49;0.73;;;0.68;;
80799;SDS011;70202;52.238;10.680;2023-12-20T00:09:49;0.35;;;0.35;;
80799;SDS011;70202;52.238;10.680;2023-12-20T00:10:49;0.57;;;0.57;;
80799;SDS011;70202;52.238;10.680;2023-12-20T00:11:50;0.73;;;0.60;;
80799;SDS011;70202;52.238;10.680;2023-12-20T00:12:50;0.82;;;0.55;;
80799;SDS011;70202;52.238;10.680;2023-12-20T00:13:50;0.50;;;0.50;;
80799;SDS011;70202;52.238;10.680;2023-12-20T00:14:51;0.47;;;0.47;;
80799;SDS011;70202;52.238;10.680;2023-12-20T00:15:52;0.90;;;0.60;;
80799;SDS011;70202;52.238;10.680;2023-12-20T00:16:52;0.75;;;0.60;;
80799;SDS011;70202;52.238;10.680;2023-12-20T00:17:52;0.52;;;0.50;;
80799;SDS011;70202;52.238;10.680;2023-12-20T00:18:53;0.52;;;0.40;;
80799;SDS011;70202;52.238;10.680;2023-12-20T00:19:53;0.85;;;0.60;;
80799;SDS011;70202;52.238;10.680;2023-12-20T00:20:54;0.88;;;0.60;;
80799;SDS011;70202;52.238;10.680;2023-12-20T00:21:54;0.90;;;0.68;;
80799;SDS011;70202;52.238;10.680;2023-12-20T00:22:55;1.10;;;0.80;;
80799;SDS011;70202;52.238;10.680;2023-12-20T00:23:57;0.80;;;0.68;;
80799;SDS011;70202;52.238;10.680;2023-12-20T00:24:57;0.70;;;0.60;;
80799;SDS011;70202;52.238;10.680;2023-12-20T00:25:58;0.68;;;0.57;;
80799;SDS011;70202;52.238;10.680;2023-12-20T00:26:58;0.80;;;0.60;;
80799;SDS011;70202;52.238;10.680;2023-12-20T00:27:59;1.02;;;0.50;;
80799;SDS011;70202;52.238;10.680;2023-12-20T00:28:59;1.00;;;0.70;;
80799;SDS011;70202;52.238;10.680;2023-12-20T00:30:00;0.80;;;0.55;;
80799;SDS011;70202;52.238;10.680;2023-12-20T00:31:00;1.30;;;0.60;;
80799;SDS011;70202;52.238;10.680;2023-12-20T00:32:00;0.52;;;0.52;;
80799;SDS011;70202;52.238;10.680;2023-12-20T00:33:01;0.63;;;0.50;;
80799;SDS011;70202;52.238;10.680;2023-12-20T00:34:01;0.88;;;0.73;;
80799;SDS011;70202;52.238;10.680;2023-12-20T00:35:01;0.82;;;0.60;;
80799;SDS011;70202;52.238;10.680;2023-12-20T00:36:02;0.70;;;0.60;;
80799;SDS011;70202;52.238;10.680;2023-12-20T00:37:03;0.50;;;0.50;;
80799;SDS011;70202;52.238;10.680;2023-12-20T00:38:03;0.40;;;0.40;;
80799;SDS011;70202;52.238;10.680;2023-12-20T00:39:05;0.47;;;0.47;;
80799;SDS011;70202;52.238;10.680;2023-12-20T00:40:07;0.90;;;0.60;;
80799;SDS011;70202;52.238;10.680;2023-12-20T00:41:07;0.95;;;0.60;;
80799;SDS011;70202;52.238;10.680;2023-12-20T00:42:08;0.98;;;0.68;;
80799;SDS011;70202;52.238;10.680;2023-12-20T00:43:08;0.77;;;0.47;;
80799;SDS011;70202;52.238;10.680;2023-12-20T00:44:08;0.50;;;0.45;;
80799;SDS011;70202;52.238;10.680;2023-12-20T00:45:09;1.35;;;0.80;;
80799;SDS011;70202;52.238;10.680;2023-12-20T00:46:09;0.70;;;0.60;;
80799;SDS011;70202;52.238;10.680;2023-12-20T00:47:10;0.80;;;0.57;;
80799;SDS011;70202;52.238;10.680;2023-12-20T00:48:10;0.75;;;0.70;;
80799;SDS011;70202;52.238;10.680;2023-12-20T00:49:10;0.50;;;0.40;;
80799;SDS011;70202;52.238;10.680;2023-12-20T00:50:11;0.77;;;0.60;;
80799;SDS011;70202;52.238;10.680;2023-12-20T00:51:11;1.10;;;0.70;;
80799;SDS011;70202;52.238;10.680;2023-12-20T00:52:12;1.02;;;0.80;;
80799;SDS011;70202;52.238;10.680;2023-12-20T00:53:12;0.73;;;0.60;;
80799;SDS011;70202;52.238;10.680;2023-12-20T00:54:12;0.50;;;0.50;;
80799;SDS011;70202;52.238;10.680;2023-12-20T00:55:13;0.90;;;0.68;;
80799;SDS011;70202;52.238;10.680;2023-12-20T00:56:14;0.50;;;0.45;;
80799;SDS011;70202;52.238;10.680;2023-12-20T00:57:14;0.50;;;0.50;;
80799;SDS011;70202;52.238;10.680;2023-12-20T00:58:15;0.90;;;0.60;;
80799;SDS011;70202;52.238;10.680;2023-12-20T00:59:16;0.85;;;0.57;;
80799;SDS011;70202;52.238;10.680;2023-12-20T01:00:17;0.88;;;0.52;;
80799;SDS011;70202;52.238;10.680;2023-12-20T01:01:18;0.52;;;0.50;;
80799;SDS011;70202;52.238;10.680;2023-12-20T01:02:18;0.95;;;0.65;;
80799;SDS011;70202;52.238;10.680;2023-12-20T01:03:19;0.70;;;0.52;;
80799;SDS011;70202;52.238;10.680;2023-12-20T01:04:19;0.90;;;0.77;;
80799;SDS011;70202;52.238;10.680;2023-12-20T01:05:20;1.00;;;0.65;;
80799;SDS011;70202;52.238;10.680;2023-12-20T01:06:23;0.98;;;0.70;;
80799;SDS011;70202;52.238;10.680;2023-12-20T01:07:23;0.98;;;0.70;;
80799;SDS011;70202;52.238;10.680;2023-12-20T01:08:23;0.65;;;0.60;;
80799;SDS011;70202;52.238;10.680;2023-12-20T01:09:24;1.20;;;0.70;;
80799;SDS011;70202;52.238;10.680;2023-12-20T01:10:26;0.93;;;0.70;;
80799;SDS011;70202;52.238;10.680;2023-12-20T01:11:28;0.50;;;0.32;;
80799;SDS011;70202;52.238;10.680;2023-12-20T01:12:29;0.88;;;0.68;;
80799;SDS011;70202;52.238;10.680;2023-12-20T01:13:29;0.68;;;0.57;;
80799;SDS011;70202;52.238;10.680;2023-12-20T01:14:29;1.33;;;0.73;;
80799;SDS011;70202;52.238;10.680;2023-12-20T01:15:30;1.20;;;0.80;;
80799;SDS011;70202;52.238;10.680;2023-12-20T01:16:30;1.45;;;0.90;;
80799;SDS011;70202;52.238;10.680;2023-12-20T01:17:30;1.27;;;0.80;;
80799;SDS011;70202;52.238;10.680;2023-12-20T01:18:31;1.48;;;0.80;;
80799;SDS011;70202;52.238;10.680;2023-12-20T01:19:31;1.15;;;0.73;;
80799;SDS011;70202;52.238;10.680;2023-12-20T01:20:32;0.80;;;0.60;;
80799;SDS011;70202;52.238;10.680;2023-12-20T01:21:32;0.80;;;0.60;;
80799;SDS011;70202;52.238;10.680;2023-12-20T01:22:32;0.93;;;0.65;;
80799;SDS011;70202;52.238;10.680;2023-12-20T01:23:35;1.48;;;0.90;;
80799;SDS011;70202;52.238;10.680;2023-12-20T01:24:36;1.10;;;0.70;;
80799;SDS011;70202;52.238;10.680;2023-12-20T01:25:36;1.42;;;0.75;;
80799;SDS011;70202;52.238;10.680;2023-12-20T01:26:36;0.80;;;0.50;;
80799;SDS011;70202;52.238;10.680;2023-12-20T01:27:37;0.73;;;0.52;;
80799;SDS011;70202;52.238;10.680;2023-12-20T01:28:37;0.93;;;0.70;;
80799;SDS011;70202;52.238;10.680;2023-12-20T01:29:38;1.23;;;0.77;;
80799;SDS011;70202;52.238;10.680;2023-12-20T01:30:38;0.90;;;0.60;;
80799;SDS011;70202;52.238;10.680;2023-12-20T01:31:39;1.08;;;0.75;;
80799;SDS011;70202;52.238;10.680;2023-12-20T01:32:39;1.15;;;0.65;;
80799;SDS011;70202;52.238;10.680;2023-12-20T01:33:40;1.45;;;0.88;;
80799;SDS011;70202;52.238;10.680;2023-12-20T01:34:40;1.25;;;0.73;;
80799;SDS011;70202;52.238;10.680;2023-12-20T01:35:40;0.60;;;0.50;;
80799;SDS011;70202;52.238;10.680;2023-12-20T01:36:42;1.05;;;0.75;;
80799;SDS011;70202;52.238;10.680;2023-12-20T01:37:43;0.68;;;0.60;;
80799;SDS011;70202;52.238;10.680;2023-12-20T01:38:43;1.10;;;0.70;;
80799;SDS011;70202;52.238;10.680;2023-12-20T01:39:44;1.50;;;0.80;;
80799;SDS011;70202;52.238;10.680;2023-12-20T01:40:44;1.30;;;0.80;;
80799;SDS011;70202;52.238;10.680;2023-12-20T01:41:44;1.15;;;0.80;;
80799;SDS011;70202;52.238;10.680;2023-12-20T01:42:45;1.33;;;0.80;;
80799;SDS011;70202;52.238;10.680;2023-12-20T01:43:46;1.30;;;0.70;;
80799;SDS011;70202;52.238;10.680;2023-12-20T01:44:47;1.20;;;0.90;;
80799;SDS011;70202;52.238;10.680;2023-12-20T01:45:48;0.73;;;0.60;;
80799;SDS011;70202;52.238;10.680;2023-12-20T01:46:48;1.00;;;0.70;;
80799;SDS011;70202;52.238;10.680;2023-12-20T01:47:48;1.10;;;0.60;;
80799;SDS011;70202;52.238;10.680;2023-12-20T01:48:49;1.23;;;0.70;;
80799;SDS011;70202;52.238;10.680;2023-12-20T01:49:49;0.93;;;0.50;;
80799;SDS011;70202;52.238;10.680;2023-12-20T01:50:50;1.20;;;0.70;;
80799;SDS011;70202;52.238;10.680;2023-12-20T01:51:52;1.27;;;0.70;;
80799;SDS011;70202;52.238;10.680;2023-12-20T01:52:52;1.25;;;0.70;;
80799;SDS011;70202;52.238;10.680;2023-12-20T01:53:57;0.60;;;0.47;;
80799;SDS011;70202;52.238;10.680;2023-12-20T01:54:59;0.68;;;0.57;;
80799;SDS011;70202;52.238;10.680;2023-12-20T01:56:02;0.90;;;0.50;;
80799;SDS011;70202;52.238;10.680;2023-12-20T01:57:04;1.27;;;0.70;;
80799;SDS011;70202;52.238;10.680;2023-12-20T01:58:09;0.95;;;0.52;;
80799;SDS011;70202;52.238;10.680;2023-12-20T01:59:10;0.70;;;0.57;;
80799;SDS011;70202;52.238;10.680;2023-12-20T02:00:11;0.95;;;0.60;;
80799;SDS011;70202;52.238;10.680;2023-12-20T02:01:13;1.63;;;0.75;;
80799;SDS011;70202;52.238;10.680;2023-12-20T02:02:13;0.82;;;0.50;;
80799;SDS011;70202;52.238;10.680;2023-12-20T02:03:14;0.75;;;0.47;;
80799;SDS011;70202;52.238;10.680;2023-12-20T02:04:15;1.10;;;0.70;;
80799;SDS011;70202;52.238;10.680;2023-12-20T02:05:16;0.70;;;0.50;;
80799;SDS011;70202;52.238;10.680;2023-12-20T02:06:16;0.93;;;0.40;;
80799;SDS011;70202;52.238;10.680;2023-12-20T02:07:18;1.52;;;0.70;;
80799;SDS011;70202;52.238;10.680;2023-12-20T02:08:20;1.85;;;0.70;;
80799;SDS011;70202;52.238;10.680;2023-12-20T02:09:20;1.13;;;0.60;;
80799;SDS011;70202;52.238;10.680;2023-12-20T02:10:21;1.15;;;0.55;;
80799;SDS011;70202;52.238;10.680;2023-12-20T02:11:21;0.40;;;0.40;;
80799;SDS011;70202;52.238;10.680;2023-12-20T02:12:22;0.95;;;0.50;;
80799;SDS011;70202;52.238;10.680;2023-12-20T02:13:22;1.55;;;0.60;;
80799;SDS011;70202;52.238;10.680;2023-12-20T02:14:23;0.88;;;0.60;;
80799;SDS011;70202;52.238;10.680;2023-12-20T02:15:23;1.00;;;0.50;;
80799;SDS011;70202;52.238;10.680;2023-12-20T02:16:24;1.08;;;0.60;;
80799;SDS011;70202;52.238;10.680;2023-12-20T02:17:24;0.30;;;0.28;;
80799;SDS011;70202;52.238;10.680;2023-12-20T02:18:25;1.17;;;0.50;;
80799;SDS011;70202;52.238;10.680;2023-12-20T02:19:26;0.25;;;0.25;;
80799;SDS011;70202;52.238;10.680;2023-12-20T02:20:26;0.80;;;0.47;;
80799;SDS011;70202;52.238;10.680;2023-12-20T02:21:32;0.75;;;0.32;;
80799;SDS011;70202;52.238;10.680;2023-12-20T02:22:36;0.90;;;0.43;;
80799;SDS011;70202;52.238;10.680;2023-12-20T02:23:36;0.40;;;0.30;;
80799;SDS011;70202;52.238;10.680;2023-12-20T02:24:37;1.25;;;0.70;;
80799;SDS011;70202;52.238;10.680;2023-12-20T02:25:37;0.95;;;0.45;;
80799;SDS011;70202;52.238;10.680;2023-12-20T02:26:38;1.08;;;0.60;;
80799;SDS011;70202;52.238;10.680;2023-12-20T02:27:39;0.98;;;0.40;;
80799;SDS011;70202;52.238;10.680;2023-12-20T02:28:39;1.40;;;0.70;;
80799;SDS011;70202;52.238;10.680;2023-12-20T02:29:40;0.88;;;0.40;;
80799;SDS011;70202;52.238;10.680;2023-12-20T02:30:40;0.75;;;0.50;;
80799;SDS011;70202;52.238;10.680;2023-12-20T02:31:40;1.40;;;0.60;;
80799;SDS011;70202;52.238;10.680;2023-12-20T02:32:41;0.73;;;0.45;;
80799;SDS011;70202;52.238;10.680;2023-12-20T02:33:41;0.93;;;0.50;;
80799;SDS011;70202;52.238;10.680;2023-12-20T02:34:42;1.52;;;0.68;;
80799;SDS011;70202;52.238;10.680;2023-12-20T02:35:42;1.13;;;0.50;;
80799;SDS011;70202;52.238;10.680;2023-12-20T02:36:43;1.55;;;0.50;;
80799;SDS011;70202;52.238;10.680;2023-12-20T02:37:43;0.55;;;0.40;;
80799;SDS011;70202;52.238;10.680;2023-12-20T02:38:43;0.35;;;0.35;;
80799;SDS011;70202;52.238;10.680;2023-12-20T02:39:44;1.73;;;0.80;;
80799;SDS011;70202;52.238;10.680;2023-12-20T02:40:44;0.32;;;0.28;;
80799;SDS011;70202;52.238;10.680;2023-12-20T02:41:44;0.50;;;0.20;;
80799;SDS011;70202;52.238;10.680;2023-12-20T02:42:45;0.45;;;0.20;;
80799;SDS011;70202;52.238;10.680;2023-12-20T02:43:45;1.05;;;0.45;;
80799;SDS011;70202;52.238;10.680;2023-12-20T02:44:45;1.13;;;0.40;;
80799;SDS011;70202;52.238;10.680;2023-12-20T02:45:46;0.77;;;0.40;;
80799;SDS011;70202;52.238;10.680;2023-12-20T02:46:46;1.55;;;0.50;;
80799;SDS011;70202;52.238;10.680;2023-12-20T02:47:47;0.80;;;0.30;;
80799;SDS011;70202;52.238;10.680;2023-12-20T02:48:47;1.65;;;0.57;;
80799;SDS011;70202;52.238;10.680;2023-12-20T02:49:47;0.52;;;0.40;;
80799;SDS011;70202;52.238;10.680;2023-12-20T02:50:49;0.70;;;0.32;;
80799;SDS011;70202;52.238;10.680;2023-12-20T02:51:49;1.33;;;0.43;;
80799;SDS011;70202;52.238;10.680;2023-12-20T02:52:49;1.35;;;0.52;;
80799;SDS011;70202;52.238;10.680;2023-12-20T02:53:50;0.68;;;0.40;;
80799;SDS011;70202;52.238;10.680;2023-12-20T02:54:50;0.90;;;0.50;;
80799;SDS011;70202;52.238;10.680;2023-12-20T02:55:51;0.88;;;0.40;;
80799;SDS011;70202;52.238;10.680;2023-12-20T02:56:51;0.52;;;0.30;;
80799;SDS011;70202;52.238;10.680;2023-12-20T02:57:51;0.47;;;0.20;;
80799;SDS011;70202;52.238;10.680;2023-12-20T02:58:52;0.10;;;0.10;;
80799;SDS011;70202;52.238;10.680;2023-12-20T02:59:52;0.60;;;0.30;;
80799;SDS011;70202;52.238;10.680;2023-12-20T03:00:52;0.30;;;0.10;;
80799;SDS011;70202;52.238;10.680;2023-12-20T03:01:53;0.75;;;0.28;;
80799;SDS011;70202;52.238;10.680;2023-12-20T03:02:53;0.47;;;0.20;;
80799;SDS011;70202;52.238;10.680;2023-12-20T03:03:53;1.40;;;0.30;;
80799;SDS011;70202;52.238;10.680;2023-12-20T03:04:54;1.10;;;0.35;;
80799;SDS011;70202;52.238;10.680;2023-12-20T03:05:55;0.63;;;0.40;;
80799;SDS011;70202;52.238;10.680;2023-12-20T03:06:55;1.42;;;0.47;;
80799;SDS011;70202;52.238;10.680;2023-12-20T03:07:55;1.15;;;0.45;;
80799;SDS011;70202;52.238;10.680;2023-12-20T03:08:56;0.57;;;0.17;;
80799;SDS011;70202;52.238;10.680;2023-12-20T03:09:56;1.10;;;0.25;;
80799;SDS011;70202;52.238;10.680;2023-12-20T03:10:59;0.77;;;0.30;;
80799;SDS011;70202;52.238;10.680;2023-12-20T03:11:59;1.00;;;0.50;;
80799;SDS011;70202;52.238;10.680;2023-12-20T03:13:00;1.13;;;0.30;;
80799;SDS011;70202;52.238;10.680;2023-12-20T03:14:00;1.38;;;0.40;;
80799;SDS011;70202;52.238;10.680;2023-12-20T03:15:01;0.68;;;0.20;;
80799;SDS011;70202;52.238;10.680;2023-12-20T03:16:01;0.40;;;0.30;;
80799;SDS011;70202;52.238;10.680;2023-12-20T03:17:07;1.25;;;0.40;;
80799;SDS011;70202;52.238;10.680;2023-12-20T03:18:08;0.30;;;0.10;;
80799;SDS011;70202;52.238;10.680;2023-12-20T03:19:08;0.45;;;0.22;;
80799;SDS011;70202;52.238;10.680;2023-12-20T03:20:08;0.13;;;0.13;;
80799;SDS011;70202;52.238;10.680;2023-12-20T03:21:09;0.80;;;0.38;;
80799;SDS011;70202;52.238;10.680;2023-12-20T03:22:09;0.38;;;0.17;;
80799;SDS011;70202;52.238;10.680;2023-12-20T03:23:10;0.47;;;0.15;;
80799;SDS011;70202;52.238;10.680;2023-12-20T03:24:11;2.38;;;0.47;;
80799;SDS011;70202;52.238;10.680;2023-12-20T03:25:11;0.10;;;0.10;;
80799;SDS011;70202;52.238;10.680;2023-12-20T03:26:11;0.70;;;0.25;;
80799;SDS011;70202;52.238;10.680;2023-12-20T03:27:12;0.47;;;0.20;;
80799;SDS011;70202;52.238;10.680;2023-12-20T03:28:14;1.30;;;0.30;;
80799;SDS011;70202;52.238;10.680;2023-12-20T03:29:15;0.65;;;0.20;;
80799;SDS011;70202;52.238;10.680;2023-12-20T03:30:15;0.50;;;0.17;;
80799;SDS011;70202;52.238;10.680;2023-12-20T03:31:16;0.60;;;0.20;;
80799;SDS011;70202;52.238;10.680;2023-12-20T03:32:16;0.65;;;0.20;;
80799;SDS011;70202;52.238;10.680;2023-12-20T03:33:17;0.10;;;0.05;;
80799;SDS011;70202;52.238;10.680;2023-12-20T03:34:17;1.00;;;0.35;;
80799;SDS011;70202;52.238;10.680;2023-12-20T03:35:17;0.85;;;0.35;;
80799;SDS011;70202;52.238;10.680;2023-12-20T03:36:18;0.38;;;0.15;;
80799;SDS011;70202;52.238;10.680;2023-12-20T03:37:18;0.25;;;0.13;;
80799;SDS011;70202;52.238;10.680;2023-12-20T03:38:18;0.38;;;0.20;;
80799;SDS011;70202;52.238;10.680;2023-12-20T03:39:19;0.65;;;0.30;;
80799;SDS011;70202;52.238;10.680;2023-12-20T03:40:19;0.45;;;0.20;;
80799;SDS011;70202;52.238;10.680;2023-12-20T03:41:19;0.85;;;0.20;;
80799;SDS011;70202;52.238;10.680;2023-12-20T03:42:20;0.22;;;0.15;;
80799;SDS011;70202;52.238;10.680;2023-12-20T03:43:20;0.85;;;0.28;;
80799;SDS011;70202;52.238;10.680;2023-12-20T03:44:21;1.50;;;0.50;;
80799;SDS011;70202;52.238;10.680;2023-12-20T03:45:21;0.75;;;0.30;;
80799;SDS011;70202;52.238;10.680;2023-12-20T03:46:22;0.32;;;0.10;;
80799;SDS011;70202;52.238;10.680;2023-12-20T03:47:22;0.98;;;0.35;;
80799;SDS011;70202;52.238;10.680;2023-12-20T03:48:22;0.55;;;0.10;;
80799;SDS011;70202;52.238;10.680;2023-12-20T03:49:23;1.52;;;0.57;;
80799;SDS011;70202;52.238;10.680;2023-12-20T03:50:23;0.45;;;0.20;;
80799;SDS011;70202;52.238;10.680;2023-12-20T03:51:23;0.75;;;0.20;;
80799;SDS011;70202;52.238;10.680;2023-12-20T03:52:24;0.82;;;0.20;;
80799;SDS011;70202;52.238;10.680;2023-12-20T03:53:24;0.68;;;0.20;;
80799;SDS011;70202;52.238;10.680;2023-12-20T03:54:25;0.22;;;0.10;;
80799;SDS011;70202;52.238;10.680;2023-12-20T03:55:25;0.82;;;0.30;;
80799;SDS011;70202;52.238;10.680;2023-12-20T03:56:25;0.05;;;0.05;;
80799;SDS011;70202;52.238;10.680;2023-12-20T03:57:26;0.80;;;0.22;;
80799;SDS011;70202;52.238;10.680;2023-12-20T03:58:26;0.50;;;0.20;;
80799;SDS011;70202;52.238;10.680;2023-12-20T03:59:26;0.80;;;0.28;;
80799;SDS011;70202;52.238;10.680;2023-12-20T04:00:27;1.10;;;0.30;;
80799;SDS011;70202;52.238;10.680;2023-12-20T04:01:27;0.10;;;0.00;;
80799;SDS011;70202;52.238;10.680;2023-12-20T04:02:28;0.55;;;0.20;;
80799;SDS011;70202;52.238;10.680;2023-12-20T04:03:28;0.32;;;0.10;;
80799;SDS011;70202;52.238;10.680;2023-12-20T04:04:28;0.38;;;0.17;;
80799;SDS011;70202;52.238;10.680;2023-12-20T04:05:29;0.15;;;0.10;;
80799;SDS011;70202;52.238;10.680;2023-12-20T04:06:29;0.65;;;0.28;;
80799;SDS011;70202;52.238;10.680;2023-12-20T04:07:29;0.47;;;0.10;;
80799;SDS011;70202;52.238;10.680;2023-12-20T04:08:30;0.38;;;0.10;;
80799;SDS011;70202;52.238;10.680;2023-12-20T04:09:30;0.57;;;0.10;;
80799;SDS011;70202;52.238;10.680;2023-12-20T04:10:31;0.60;;;0.22;;
80799;SDS011;70202;52.238;10.680;2023-12-20T04:11:31;0.73;;;0.22;;
80799;SDS011;70202;52.238;10.680;2023-12-20T04:12:32;0.30;;;0.00;;
80799;SDS011;70202;52.238;10.680;2023-12-20T04:13:32;0.32;;;0.10;;
80799;SDS011;70202;52.238;10.680;2023-12-20T04:14:33;0.77;;;0.30;;
80799;SDS011;70202;52.238;10.680;2023-12-20T04:15:33;0.77;;;0.22;;
80799;SDS011;70202;52.238;10.680;2023-12-20T04:16:34;0.50;;;0.25;;
80799;SDS011;70202;52.238;10.680;2023-12-20T04:17:35;1.00;;;0.20;;
80799;SDS011;70202;52.238;10.680;2023-12-20T04:18:36;1.13;;;0.43;;
80799;SDS011;70202;52.238;10.680;2023-12-20T04:19:36;0.85;;;0.30;;
80799;SDS011;70202;52.238;10.680;2023-12-20T04:20:37;1.50;;;0.45;;
80799;SDS011;70202;52.238;10.680;2023-12-20T04:21:37;0.68;;;0.28;;
80799;SDS011;70202;52.238;10.680;2023-12-20T04:22:37;0.20;;;0.10;;
80799;SDS011;70202;52.238;10.680;2023-12-20T04:23:38;0.88;;;0.20;;
80799;SDS011;70202;52.238;10.680;2023-12-20T04:24:38;0.30;;;0.10;;
80799;SDS011;70202;52.238;10.680;2023-12-20T04:25:38;0.65;;;0.20;;
80799;SDS011;70202;52.238;10.680;2023-12-20T04:26:39;0.17;;;0.10;;
80799;SDS011;70202;52.238;10.680;2023-12-20T04:27:39;0.52;;;0.32;;
80799;SDS011;70202;52.238;10.680;2023-12-20T04:28:39;0.20;;;0.10;;
80799;SDS011;70202;52.238;10.680;2023-12-20T04:29:40;1.05;;;0.30;;
80799;SDS011;70202;52.238;10.680;2023-12-20T04:30:41;0.52;;;0.15;;
80799;SDS011;70202;52.238;10.680;2023-12-20T04:31:42;0.47;;;0.20;;
80799;SDS011;70202;52.238;10.680;2023-12-20T04:32:42;0.57;;;0.10;;
80799;SDS011;70202;52.238;10.680;2023-12-20T04:33:42;0.38;;;0.10;;
80799;SDS011;70202;52.238;10.680;2023-12-20T04:34:43;0.50;;;0.25;;
80799;SDS011;70202;52.238;10.680;2023-12-20T04:35:43;1.48;;;0.45;;
80799;SDS011;70202;52.238;10.680;2023-12-20T04:36:45;0.60;;;0.10;;
80799;SDS011;70202;52.238;10.680;2023-12-20T04:37:46;0.20;;;0.15;;
80799;SDS011;70202;52.238;10.680;2023-12-20T04:38:47;0.80;;;0.50;;
80799;SDS011;70202;52.238;10.680;2023-12-20T04:39:47;0.45;;;0.10;;
80799;SDS011;70202;52.238;10.680;2023-12-20T04:40:47;0.45;;;0.17;;
80799;SDS011;70202;52.238;10.680;2023-12-20T04:41:48;0.35;;;0.10;;
80799;SDS011;70202;52.238;10.680;2023-12-20T04:42:50;0.35;;;0.10;;
80799;SDS011;70202;52.238;10.680;2023-12-20T04:43:50;0.45;;;0.20;;
80799;SDS011;70202;52.238;10.680;2023-12-20T04:44:51;0.77;;;0.20;;
80799;SDS011;70202;52.238;10.680;2023-12-20T04:45:51;0.40;;;0.20;;
80799;SDS011;70202;52.238;10.680;2023-12-20T04:46:51;0.80;;;0.30;;
80799;SDS011;70202;52.238;10.680;2023-12-20T04:47:52;1.48;;;0.35;;
80799;SDS011;70202;52.238;10.680;2023-12-20T04:48:53;0.80;;;0.20;;
80799;SDS011;70202;52.238;10.680;2023-12-20T04:49:53;1.13;;;0.40;;
80799;SDS011;70202;52.238;10.680;2023-12-20T04:50:54;0.50;;;0.20;;
80799;SDS011;70202;52.238;10.680;2023-12-20T04:51:54;0.60;;;0.20;;
80799;SDS011;70202;52.238;10.680;2023-12-20T04:52:55;0.15;;;0.10;;
80799;SDS011;70202;52.238;10.680;2023-12-20T04:53:56;0.93;;;0.30;;
80799;SDS011;70202;52.238;10.680;2023-12-20T04:54:57;0.52;;;0.22;;
80799;SDS011;70202;52.238;10.680;2023-12-20T04:55:57;0.70;;;0.20;;
80799;SDS011;70202;52.238;10.680;2023-12-20T04:56:57;0.60;;;0.45;;
80799;SDS011;70202;52.238;10.680;2023-12-20T04:57:58;0.45;;;0.17;;
80799;SDS011;70202;52.238;10.680;2023-12-20T04:58:58;0.52;;;0.20;;
80799;SDS011;70202;52.238;10.680;2023-12-20T04:59:59;0.22;;;0.10;;
80799;SDS011;70202;52.238;10.680;2023-12-20T05:00:59;0.25;;;0.10;;
80799;SDS011;70202;52.238;10.680;2023-12-20T05:02:00;0.88;;;0.40;;
80799;SDS011;70202;52.238;10.680;2023-12-20T05:03:00;0.10;;;0.10;;
80799;SDS011;70202;52.238;10.680;2023-12-20T05:04:00;0.73;;;0.10;;
80799;SDS011;70202;52.238;10.680;2023-12-20T05:05:01;1.33;;;0.47;;
80799;SDS011;70202;52.238;10.680;2023-12-20T05:06:01;0.47;;;0.28;;
80799;SDS011;70202;52.238;10.680;2023-12-20T05:07:02;0.55;;;0.30;;
80799;SDS011;70202;52.238;10.680;2023-12-20T05:08:04;0.82;;;0.22;;
80799;SDS011;70202;52.238;10.680;2023-12-20T05:09:05;1.08;;;0.30;;
80799;SDS011;70202;52.238;10.680;2023-12-20T05:10:06;0.85;;;0.35;;
80799;SDS011;70202;52.238;10.680;2023-12-20T05:11:08;0.45;;;0.20;;
80799;SDS011;70202;52.238;10.680;2023-12-20T05:12:09;1.05;;;0.50;;
80799;SDS011;70202;52.238;10.680;2023-12-20T05:13:09;0.43;;;0.08;;
80799;SDS011;70202;52.238;10.680;2023-12-20T05:14:10;0.28;;;0.10;;
80799;SDS011;70202;52.238;10.680;2023-12-20T05:15:10;0.43;;;0.20;;
80799;SDS011;70202;52.238;10.680;2023-12-20T05:16:11;0.35;;;0.10;;
80799;SDS011;70202;52.238;10.680;2023-12-20T05:17:11;0.20;;;0.05;;
80799;SDS011;70202;52.238;10.680;2023-12-20T05:18:12;0.57;;;0.20;;
80799;SDS011;70202;52.238;10.680;2023-12-20T05:19:13;0.70;;;0.17;;
80799;SDS011;70202;52.238;10.680;2023-12-20T05:20:14;0.40;;;0.20;;
80799;SDS011;70202;52.238;10.680;2023-12-20T05:21:14;0.10;;;0.10;;
80799;SDS011;70202;52.238;10.680;2023-12-20T05:22:14;0.43;;;0.10;;
80799;SDS011;70202;52.238;10.680;2023-12-20T05:23:15;0.20;;;0.10;;
80799;SDS011;70202;52.238;10.680;2023-12-20T05:24:15;1.10;;;0.20;;
80799;SDS011;70202;52.238;10.680;2023-12-20T05:25:16;0.65;;;0.20;;
80799;SDS011;70202;52.238;10.680;2023-12-20T05:26:16;0.38;;;0.20;;
80799;SDS011;70202;52.238;10.680;2023-12-20T05:27:17;0.68;;;0.30;;
80799;SDS011;70202;52.238;10.680;2023-12-20T05:28:17;1.23;;;0.30;;
80799;SDS011;70202;52.238;10.680;2023-12-20T05:29:17;0.32;;;0.10;;
80799;SDS011;70202;52.238;10.680;2023-12-20T05:30:18;0.32;;;0.10;;
80799;SDS011;70202;52.238;10.680;2023-12-20T05:31:18;0.75;;;0.20;;
80799;SDS011;70202;52.238;10.680;2023-12-20T05:32:19;0.45;;;0.20;;
80799;SDS011;70202;52.238;10.680;2023-12-20T05:33:19;0.45;;;0.10;;
80799;SDS011;70202;52.238;10.680;2023-12-20T05:34:19;0.32;;;0.10;;
80799;SDS011;70202;52.238;10.680;2023-12-20T05:35:20;0.82;;;0.25;;
80799;SDS011;70202;52.238;10.680;2023-12-20T05:36:22;0.25;;;0.10;;
80799;SDS011;70202;52.238;10.680;2023-12-20T05:37:22;0.85;;;0.20;;
80799;SDS011;70202;52.238;10.680;2023-12-20T05:38:23;0.00;;;0.00;;
80799;SDS011;70202;52.238;10.680;2023-12-20T05:39:23;0.38;;;0.20;;
80799;SDS011;70202;52.238;10.680;2023-12-20T05:40:23;0.80;;;0.20;;
80799;SDS011;70202;52.238;10.680;2023-12-20T05:41:24;0.35;;;0.10;;
80799;SDS011;70202;52.238;10.680;2023-12-20T05:42:24;0.88;;;0.25;;
80799;SDS011;70202;52.238;10.680;2023-12-20T05:43:25;1.27;;;0.28;;
80799;SDS011;70202;52.238;10.680;2023-12-20T05:44:25;0.32;;;0.05;;
80799;SDS011;70202;52.238;10.680;2023-12-20T05:45:25;0.57;;;0.20;;
80799;SDS011;70202;52.238;10.680;2023-12-20T05:46:26;0.30;;;0.10;;
80799;SDS011;70202;52.238;10.680;2023-12-20T05:47:27;0.68;;;0.30;;
80799;SDS011;70202;52.238;10.680;2023-12-20T05:48:27;0.88;;;0.32;;
80799;SDS011;70202;52.238;10.680;2023-12-20T05:49:28;0.38;;;0.10;;
80799;SDS011;70202;52.238;10.680;2023-12-20T05:50:28;0.82;;;0.20;;
80799;SDS011;70202;52.238;10.680;2023-12-20T05:51:28;0.20;;;0.17;;
80799;SDS011;70202;52.238;10.680;2023-12-20T05:52:29;0.65;;;0.30;;
80799;SDS011;70202;52.238;10.680;2023-12-20T05:53:29;0.47;;;0.20;;
80799;SDS011;70202;52.238;10.680;2023-12-20T05:54:30;0.25;;;0.10;;
80799;SDS011;70202;52.238;10.680;2023-12-20T05:55:30;0.00;;;0.00;;
80799;SDS011;70202;52.238;10.680;2023-12-20T05:56:31;0.17;;;0.10;;
80799;SDS011;70202;52.238;10.680;2023-12-20T05:57:31;0.38;;;0.15;;
80799;SDS011;70202;52.238;10.680;2023-12-20T05:58:32;0.65;;;0.32;;
80799;SDS011;70202;52.238;10.680;2023-12-20T05:59:33;0.60;;;0.30;;